Terminal Aerodrome Forecast
Issued by NWS

Home | Current Version | Previous Version | Text Only | Print | Product List | Glossary On
Versions: 1 2 3 4 5 6 7 8 9 10 11 12 13 14 15 16 17 18 19 20 21 22 23
000
FTUS46 KMFR 022133 AAC
TAFRBG
TAF AMD
KRBG 022133Z 0222/0318 35003KT P6SM FEW020 OVC035
     FM022300 36008KT P6SM FEW025 BKN035
     FM030300 VRB03KT P6SM SCT035
     FM031300 00000KT 1SM BR BKN003=

USA.gov is the U.S. government's official web portal to all federal, state and local government web resources and services.